createdAt,value
2019-05-07T00:00:14.629Z,14.40
2019-05-07T00:03:03.304Z,10.35
2019-05-07T00:05:53.746Z,8.60
2019-05-07T00:08:44.645Z,13.50
2019-05-07T00:11:32.994Z,9.75
2019-05-07T00:14:20.247Z,11.80
2019-05-07T00:17:08.554Z,12.63
2019-05-07T00:19:56.289Z,11.18
2019-05-07T00:22:44.243Z,10.63
2019-05-07T00:25:32.959Z,13.83
2019-05-07T00:28:22.994Z,9.73
2019-05-07T00:31:12.354Z,11.68
2019-05-07T00:34:02.784Z,13.10
2019-05-07T00:36:52.504Z,11.57
2019-05-07T00:39:58.339Z,13.03
2019-05-07T00:42:48.505Z,11.53
2019-05-07T00:45:52.716Z,11.80
2019-05-07T00:48:41.713Z,10.68
2019-05-07T00:51:33.147Z,17.05
2019-05-07T00:54:23.023Z,12.58
2019-05-07T00:57:12.424Z,10.08
2019-05-07T01:00:02.241Z,16.42
2019-05-07T01:02:52.385Z,12.83
2019-05-07T01:05:39.491Z,14.58
2019-05-07T01:08:27.508Z,13.38
2019-05-07T01:11:16.157Z,18.73
2019-05-07T01:14:04.527Z,13.28
2019-05-07T01:16:53.058Z,17.23
2019-05-07T01:19:42.337Z,12.50
2019-05-07T01:22:49.993Z,14.33
2019-05-07T01:25:38.098Z,11.90
2019-05-07T01:28:26.168Z,19.12
2019-05-07T01:31:14.878Z,15.35
2019-05-07T01:34:23.030Z,14.40
2019-05-07T01:37:12.283Z,13.72
2019-05-07T01:39:59.651Z,13.58
2019-05-07T01:42:47.474Z,15.25
2019-05-07T01:45:46.359Z,15.78
2019-05-07T01:48:26.482Z,12.05
2019-05-07T01:51:14.912Z,14.45
2019-05-07T01:54:02.994Z,14.43
2019-05-07T01:56:52.170Z,17.10
2019-05-07T01:59:42.500Z,16.77
2019-05-07T02:02:34.888Z,17.17
2019-05-07T02:05:42.434Z,14.63
2019-05-07T02:08:50.057Z,12.58
2019-05-07T02:11:45.789Z,15.40
2019-05-07T02:14:33.701Z,19.20
2019-05-07T02:17:22.801Z,17.00
2019-05-07T02:20:13.084Z,18.48
2019-05-07T02:23:02.603Z,16.23
2019-05-07T02:25:52.577Z,16.15
2019-05-07T02:28:42.486Z,17.62
2019-05-07T02:31:33.244Z,15.90
2019-05-07T02:34:23.211Z,15.75
2019-05-07T02:37:10.643Z,14.43
2019-05-07T02:40:00.098Z,13.50
2019-05-07T02:42:47.743Z,10.55
2019-05-07T02:45:37.800Z,13.48
2019-05-07T02:48:27.116Z,14.63
2019-05-07T02:51:25.686Z,12.13
2019-05-07T02:54:14.982Z,12.37
2019-05-07T02:57:03.341Z,17.55
2019-05-07T02:59:54.354Z,18.82
2019-05-07T03:02:43.650Z,14.83
2019-05-07T03:05:34.575Z,17.20
2019-05-07T03:08:26.975Z,18.40
2019-05-07T03:11:14.077Z,13.25
2019-05-07T03:14:02.945Z,15.13
2019-05-07T03:16:50.672Z,20.23
2019-05-07T03:19:43.076Z,12.30
2019-05-07T03:22:33.497Z,16.60
2019-05-07T03:25:24.208Z,14.73
2019-05-07T03:28:13.587Z,17.82
2019-05-07T03:31:16.865Z,22.48
2019-05-07T03:34:07.318Z,14.18
2019-05-07T03:36:57.639Z,18.00
2019-05-07T03:40:06.422Z,22.15
2019-05-07T03:42:54.709Z,18.17
2019-05-07T03:45:47.909Z,17.48
2019-05-07T03:48:37.464Z,17.62
2019-05-07T03:51:25.990Z,17.60
2019-05-07T03:54:14.525Z,22.62
2019-05-07T03:57:10.685Z,17.37
2019-05-07T03:59:53.305Z,16.45
2019-05-07T04:02:43.772Z,14.00
2019-05-07T04:05:34.263Z,18.20
2019-05-07T04:08:23.721Z,19.30
2019-05-07T04:11:13.428Z,16.95
2019-05-07T04:14:02.406Z,14.75
2019-05-07T04:16:49.535Z,17.85
2019-05-07T04:19:37.728Z,14.55
2019-05-07T04:22:28.913Z,14.87
2019-05-07T04:25:19.901Z,18.37
2019-05-07T04:28:09.222Z,19.82
2019-05-07T04:30:58.945Z,20.85
2019-05-07T04:33:48.398Z,22.10
2019-05-07T04:36:38.044Z,19.77
2019-05-07T04:39:25.870Z,18.77
2019-05-07T04:42:13.772Z,24.72
2019-05-07T04:45:04.159Z,17.80
2019-05-07T04:47:53.813Z,14.73
2019-05-07T04:50:47.591Z,20.43
2019-05-07T04:53:33.203Z,17.17
2019-05-07T04:56:23.936Z,13.75
2019-05-07T04:59:13.153Z,17.75
2019-05-07T05:02:04.146Z,15.85
2019-05-07T05:04:53.109Z,22.15
2019-05-07T05:07:43.127Z,22.58
2019-05-07T05:10:33.487Z,21.60
2019-05-07T05:13:23.527Z,17.90
2019-05-07T05:16:26.616Z,20.65
2019-05-07T05:19:14.938Z,22.30
2019-05-07T05:22:07.341Z,23.57
2019-05-07T05:25:13.757Z,25.57
2019-05-07T05:28:02.313Z,23.65
2019-05-07T05:30:52.831Z,18.45
2019-05-07T05:33:41.919Z,27.20
2019-05-07T05:36:32.755Z,27.42
2019-05-07T05:39:19.384Z,22.17
2019-05-07T05:42:08.993Z,16.07
2019-05-07T05:44:56.784Z,20.55
2019-05-07T05:47:45.347Z,16.57
2019-05-07T05:50:53.610Z,24.47
2019-05-07T05:53:49.343Z,20.12
2019-05-07T05:56:42.673Z,20.05
2019-05-07T05:59:47.443Z,21.23
2019-05-07T06:02:32.464Z,23.27
2019-05-07T06:05:42.045Z,21.02
2019-05-07T06:08:47.840Z,22.22
2019-05-07T06:11:37.750Z,14.55
2019-05-07T06:14:48.963Z,17.23
2019-05-07T06:17:38.763Z,27.13
2019-05-07T06:20:34.171Z,21.70
2019-05-07T06:23:26.782Z,18.42
2019-05-07T06:26:14.847Z,26.73
2019-05-07T06:29:02.981Z,19.37
2019-05-07T06:32:02.650Z,21.35
2019-05-07T06:34:52.277Z,22.55
2019-05-07T06:37:40.164Z,24.65
2019-05-07T06:40:32.154Z,21.62
2019-05-07T06:43:26.839Z,16.05
2019-05-07T06:46:14.815Z,20.40
2019-05-07T06:49:02.748Z,15.30
2019-05-07T06:51:52.860Z,19.52
2019-05-07T06:54:42.728Z,23.45
2019-05-07T06:57:32.959Z,15.78
2019-05-07T07:00:24.326Z,25.57
2019-05-07T07:03:13.473Z,15.85
2019-05-07T07:06:06.401Z,19.20
2019-05-07T07:08:55.638Z,18.65
2019-05-07T07:11:45.358Z,16.95
2019-05-07T07:14:33.306Z,12.73
2019-05-07T07:17:22.277Z,18.92
2019-05-07T07:20:12.672Z,17.73
2019-05-07T07:23:02.398Z,17.92
2019-05-07T07:25:52.217Z,16.00
2019-05-07T07:28:42.805Z,22.50
2019-05-07T07:31:32.016Z,21.05
2019-05-07T07:34:22.753Z,16.35
2019-05-07T07:37:23.436Z,21.40
2019-05-07T07:40:22.445Z,16.02
2019-05-07T07:43:12.897Z,24.57
2019-05-07T07:46:02.197Z,23.52
2019-05-07T07:49:04.371Z,14.53
2019-05-07T07:51:44.474Z,15.03
2019-05-07T07:54:32.075Z,27.10
2019-05-07T07:57:42.603Z,13.88
2019-05-07T08:00:32.840Z,17.55
2019-05-07T08:03:22.570Z,11.73
2019-05-07T08:06:11.544Z,16.15
2019-05-07T08:08:59.414Z,21.17
2019-05-07T08:11:47.258Z,19.95
2019-05-07T08:14:35.639Z,17.17
2019-05-07T08:17:23.927Z,15.65
2019-05-07T08:20:12.948Z,14.50
2019-05-07T08:23:02.925Z,11.70
2019-05-07T08:25:52.528Z,21.30
2019-05-07T08:28:41.904Z,15.90
2019-05-07T08:31:48.762Z,22.22
2019-05-07T08:34:38.475Z,15.35
2019-05-07T08:37:26.232Z,12.60
2019-05-07T08:40:14.800Z,14.83
2019-05-07T08:43:03.251Z,15.03
2019-05-07T08:45:53.436Z,11.10
2019-05-07T08:48:43.154Z,12.53
2019-05-07T08:51:32.685Z,11.08
2019-05-07T08:54:22.707Z,19.77
2019-05-07T08:57:12.150Z,20.80
2019-05-07T09:00:02.279Z,17.15
2019-05-07T09:02:52.394Z,14.95
2019-05-07T09:05:39.759Z,11.25
2019-05-07T09:08:27.519Z,14.75
2019-05-07T09:11:15.817Z,13.20
2019-05-07T09:14:03.871Z,10.00
2019-05-07T09:16:52.712Z,7.30
2019-05-07T09:19:50.832Z,13.90
2019-05-07T09:22:32.326Z,10.68
2019-05-07T09:25:22.138Z,10.48
2019-05-07T09:28:12.559Z,9.08
2019-05-07T09:31:02.154Z,11.40
2019-05-07T09:34:03.202Z,10.82
2019-05-07T09:36:52.487Z,10.80
2019-05-07T09:39:40.095Z,11.68
2019-05-07T09:42:28.073Z,7.62
2019-05-07T09:45:16.812Z,8.25
2019-05-07T09:48:07.174Z,10.10
2019-05-07T09:50:55.736Z,8.90
2019-05-07T09:53:44.790Z,8.93
2019-05-07T09:56:32.550Z,9.18
2019-05-07T09:59:21.840Z,6.60
2019-05-07T10:02:12.105Z,7.60
2019-05-07T10:05:02.458Z,7.05
2019-05-07T10:07:49.701Z,6.83
2019-05-07T10:10:37.795Z,10.53
2019-05-07T10:13:43.845Z,8.78
2019-05-07T10:16:52.288Z,7.08
2019-05-07T10:19:41.750Z,8.15
2019-05-07T10:22:32.115Z,7.15
2019-05-07T10:25:22.423Z,7.70
2019-05-07T10:28:12.548Z,6.87
2019-05-07T10:31:01.147Z,5.65
2019-05-07T10:33:49.393Z,9.00
2019-05-07T10:36:38.300Z,8.03
2019-05-07T10:39:26.972Z,7.08
2019-05-07T10:42:15.441Z,9.23
2019-05-07T10:45:06.320Z,10.70
2019-05-07T10:48:05.014Z,14.73
2019-05-07T10:50:54.564Z,18.48
2019-05-07T10:53:42.575Z,8.75
2019-05-07T10:56:32.492Z,10.13
2019-05-07T10:59:19.979Z,6.03
2019-05-07T11:02:09.455Z,8.60
2019-05-07T11:04:57.351Z,8.23
2019-05-07T11:07:45.871Z,6.05
2019-05-07T11:10:33.605Z,6.20
2019-05-07T11:13:22.070Z,10.03
2019-05-07T11:16:11.847Z,6.80
2019-05-07T11:19:01.954Z,6.45
2019-05-07T11:21:52.036Z,6.70
2019-05-07T11:24:40.168Z,6.15
2019-05-07T11:27:28.757Z,7.72
2019-05-07T11:30:17.692Z,7.72
2019-05-07T11:33:05.864Z,6.30
2019-05-07T11:35:54.471Z,10.03
2019-05-07T11:38:44.665Z,6.80
2019-05-07T11:41:34.403Z,5.28
2019-05-07T11:44:23.244Z,6.25
2019-05-07T11:47:24.317Z,7.03
2019-05-07T11:50:22.459Z,8.85
2019-05-07T11:53:11.169Z,7.35
2019-05-07T11:55:58.929Z,7.22
2019-05-07T11:58:46.948Z,8.48
2019-05-07T12:01:46.640Z,5.90
2019-05-07T12:04:27.996Z,7.55
2019-05-07T12:07:16.792Z,5.10
2019-05-07T12:10:06.578Z,6.55
2019-05-07T12:12:54.876Z,6.95
2019-05-07T12:15:43.610Z,7.10
2019-05-07T12:18:33.086Z,8.63
2019-05-07T12:21:23.618Z,6.40
2019-05-07T12:24:12.348Z,7.40
2019-05-07T12:26:59.305Z,6.87
2019-05-07T12:29:48.045Z,10.53
2019-05-07T12:35:37.563Z,6.67
2019-05-07T12:38:26.212Z,9.68
2019-05-07T12:41:30.037Z,6.62
2019-05-07T12:44:17.834Z,6.50
2019-05-07T12:47:05.862Z,9.03
2019-05-07T12:49:54.105Z,6.50
2019-05-07T12:52:43.431Z,7.97
2019-05-07T12:55:33.135Z,9.73
2019-05-07T12:58:22.838Z,7.22
2019-05-07T13:01:14.836Z,10.55
2019-05-07T13:04:09.586Z,7.37
2019-05-07T13:06:58.790Z,8.85
2019-05-07T13:09:46.474Z,7.47
2019-05-07T13:12:34.412Z,6.80
2019-05-07T13:15:27.558Z,6.87
2019-05-07T13:18:12.945Z,6.87
2019-05-07T13:21:02.436Z,6.15
2019-05-07T13:23:52.092Z,7.47
2019-05-07T13:26:42.621Z,7.35
2019-05-07T13:29:32.465Z,6.83
2019-05-07T13:32:22.139Z,7.47
2019-05-07T13:35:11.879Z,9.20
2019-05-07T13:38:04.880Z,7.65
2019-05-07T13:41:12.709Z,8.08
2019-05-07T13:44:19.044Z,8.85
2019-05-07T13:47:25.983Z,9.03
2019-05-07T13:50:14.509Z,8.65
2019-05-07T13:53:03.047Z,11.55
2019-05-07T13:55:51.665Z,8.35
2019-05-07T13:58:39.591Z,6.00
2019-05-07T14:01:38.785Z,8.70
2019-05-07T14:04:26.674Z,9.58
2019-05-07T14:07:15.720Z,9.10
2019-05-07T14:10:04.577Z,9.20
2019-05-07T14:12:52.840Z,9.60
2019-05-07T14:15:42.996Z,8.68
2019-05-07T14:18:32.568Z,6.35
2019-05-07T14:21:21.947Z,8.38
2019-05-07T14:24:12.331Z,7.78
2019-05-07T14:27:02.058Z,10.82
2019-05-07T14:29:52.050Z,10.58
2019-05-07T14:32:47.624Z,8.88
2019-05-07T14:35:37.665Z,8.00
2019-05-07T14:38:27.334Z,10.90
2019-05-07T14:41:15.264Z,6.62
2019-05-07T14:44:05.208Z,7.97
2019-05-07T14:46:54.441Z,9.80
2019-05-07T14:49:44.290Z,9.78
2019-05-07T14:52:35.579Z,10.15
2019-05-07T14:55:22.253Z,7.60
2019-05-07T14:58:09.592Z,11.03
2019-05-07T15:00:58.383Z,10.48
2019-05-07T15:03:46.247Z,10.60
2019-05-07T15:06:34.646Z,9.73
2019-05-07T15:09:23.265Z,11.30
2019-05-07T15:12:14.634Z,10.60
2019-05-07T15:15:02.226Z,6.90
2019-05-07T15:17:52.465Z,14.60
2019-05-07T15:20:41.941Z,8.15
2019-05-07T15:23:32.778Z,9.40
2019-05-07T15:26:22.032Z,10.90
2019-05-07T15:29:12.620Z,9.75
2019-05-07T15:32:03.400Z,8.60
2019-05-07T15:34:52.904Z,9.98
2019-05-07T15:37:42.542Z,10.32
2019-05-07T15:40:30.176Z,8.90
2019-05-07T15:43:17.943Z,7.50
2019-05-07T15:46:06.505Z,6.80
2019-05-07T15:48:54.322Z,7.75
2019-05-07T15:51:42.554Z,8.33
2019-05-07T15:54:32.611Z,7.42
2019-05-07T15:57:25.671Z,8.38
2019-05-07T16:00:22.600Z,12.33
2019-05-07T16:03:15.141Z,10.35
2019-05-07T16:06:03.792Z,10.28
2019-05-07T16:08:54.078Z,12.07
2019-05-07T16:11:44.958Z,7.87
2019-05-07T16:14:33.625Z,14.90
2019-05-07T16:17:29.695Z,8.50
2019-05-07T16:20:19.136Z,11.70
2019-05-07T16:23:14.625Z,9.25
2019-05-07T16:25:56.936Z,10.90
2019-05-07T16:28:45.377Z,8.90
2019-05-07T16:31:33.412Z,8.65
2019-05-07T16:34:43.277Z,13.10
2019-05-07T16:37:32.258Z,10.05
2019-05-07T16:40:20.272Z,8.75
2019-05-07T16:43:08.526Z,10.78
2019-05-07T16:45:57.606Z,12.35
2019-05-07T16:48:45.314Z,9.73
2019-05-07T16:51:33.187Z,11.33
2019-05-07T16:54:21.381Z,11.65
2019-05-07T16:57:26.923Z,11.22
2019-05-07T17:00:24.574Z,13.43
2019-05-07T17:03:14.070Z,10.68
2019-05-07T17:06:01.892Z,11.45
2019-05-07T17:08:51.774Z,19.25
2019-05-07T17:11:39.776Z,13.45
2019-05-07T17:14:27.833Z,10.90
2019-05-07T17:17:16.400Z,11.65
2019-05-07T17:20:06.244Z,13.53
2019-05-07T17:22:55.071Z,9.45
2019-05-07T17:25:43.239Z,9.28
2019-05-07T17:28:32.041Z,11.25
2019-05-07T17:31:22.741Z,11.08
2019-05-07T17:34:11.789Z,13.13
2019-05-07T17:37:18.626Z,13.00
2019-05-07T17:40:12.300Z,12.28
2019-05-07T17:42:59.898Z,9.43
2019-05-07T17:45:48.225Z,14.40
2019-05-07T17:48:36.545Z,18.17
2019-05-07T17:51:42.497Z,14.93
2019-05-07T17:54:31.854Z,12.47
2019-05-07T17:57:33.485Z,12.13
2019-05-07T18:00:22.153Z,11.90
2019-05-07T18:03:17.709Z,9.85
2019-05-07T18:06:07.219Z,11.10
2019-05-07T18:08:55.182Z,12.70
2019-05-07T18:11:43.439Z,14.70
2019-05-07T18:14:32.135Z,15.13
2019-05-07T18:17:38.699Z,15.45
2019-05-07T18:20:29.899Z,10.55
2019-05-07T18:23:18.701Z,9.40
2019-05-07T18:26:07.496Z,11.80
2019-05-07T18:28:55.783Z,16.17
2019-05-07T18:31:45.709Z,18.87
2019-05-07T18:34:33.646Z,14.43
2019-05-07T18:37:22.937Z,10.35
2019-05-07T18:40:12.728Z,11.53
2019-05-07T18:43:03.085Z,10.88
2019-05-07T18:45:51.846Z,17.73
2019-05-07T18:48:59.438Z,12.68
2019-05-07T18:51:47.832Z,13.50
2019-05-07T18:54:36.017Z,11.73
2019-05-07T18:57:23.814Z,10.93
2019-05-07T19:00:17.195Z,11.73
2019-05-07T19:03:05.201Z,15.30
2019-05-07T19:05:53.257Z,9.75
2019-05-07T19:08:42.219Z,10.82
2019-05-07T19:11:32.168Z,19.52
2019-05-07T19:14:22.681Z,12.13
2019-05-07T19:17:12.103Z,12.47
2019-05-07T19:19:59.159Z,13.62
2019-05-07T19:22:47.842Z,10.72
2019-05-07T19:25:36.122Z,14.13
2019-05-07T19:28:24.226Z,16.15
2019-05-07T19:31:12.984Z,15.38
2019-05-07T19:34:03.036Z,13.75
2019-05-07T19:36:52.042Z,13.93
2019-05-07T19:39:42.896Z,16.12
2019-05-07T19:42:31.895Z,13.18
2019-05-07T19:45:24.232Z,11.22
2019-05-07T19:48:09.611Z,20.37
2019-05-07T19:50:58.251Z,15.53
2019-05-07T19:53:46.999Z,11.25
2019-05-07T19:56:35.159Z,13.93
2019-05-07T19:59:23.403Z,15.80
2019-05-07T20:02:12.961Z,9.58
2019-05-07T20:05:03.305Z,13.08
2019-05-07T20:07:55.245Z,13.78
2019-05-07T20:10:42.212Z,9.98
2019-05-07T20:13:32.383Z,13.38
2019-05-07T20:16:20.183Z,11.57
2019-05-07T20:19:07.879Z,13.20
2019-05-07T20:21:56.807Z,11.53
2019-05-07T20:24:46.898Z,12.60
2019-05-07T20:27:33.940Z,12.93
2019-05-07T20:30:22.853Z,10.63
2019-05-07T20:33:11.042Z,10.28
2019-05-07T20:35:59.007Z,16.15
2019-05-07T20:38:46.995Z,13.68
2019-05-07T20:41:35.624Z,9.58
2019-05-07T20:44:23.450Z,19.40
2019-05-07T20:47:12.711Z,10.93
2019-05-07T20:50:01.811Z,12.95
2019-05-07T20:52:52.260Z,12.13
2019-05-07T20:55:46.801Z,12.20
2019-05-07T20:58:34.918Z,11.28
2019-05-07T21:01:22.826Z,18.62
2019-05-07T21:04:12.944Z,20.08
2019-05-07T21:07:02.125Z,11.78
2019-05-07T21:09:52.840Z,15.95
2019-05-07T21:12:42.304Z,21.10
2019-05-07T21:15:29.789Z,15.55
2019-05-07T21:18:17.591Z,16.07
2019-05-07T21:21:06.085Z,12.47
2019-05-07T21:23:54.811Z,27.98
2019-05-07T21:26:43.172Z,13.62
2019-05-07T21:29:32.695Z,11.65
2019-05-07T21:32:23.089Z,15.93
2019-05-07T21:35:10.837Z,12.03
2019-05-07T21:37:59.586Z,15.60
2019-05-07T21:40:47.927Z,10.68
2019-05-07T21:43:35.503Z,16.45
2019-05-07T21:46:23.622Z,13.08
2019-05-07T21:49:12.318Z,14.93
2019-05-07T21:52:01.939Z,12.33
2019-05-07T21:54:52.526Z,19.32
2019-05-07T21:57:42.046Z,21.12
2019-05-07T22:00:34.876Z,22.25
2019-05-07T22:03:23.146Z,12.25
2019-05-07T22:06:12.808Z,15.50
2019-05-07T22:09:02.017Z,14.18
2019-05-07T22:11:53.500Z,14.53
2019-05-07T22:14:40.063Z,11.05
2019-05-07T22:17:28.271Z,12.50
2019-05-07T22:20:15.950Z,11.45
2019-05-07T22:23:04.242Z,13.98
2019-05-07T22:25:52.298Z,10.78
2019-05-07T22:28:41.965Z,15.83
2019-05-07T22:31:43.918Z,17.40
2019-05-07T22:34:31.460Z,11.57
2019-05-07T22:37:21.933Z,12.88
2019-05-07T22:40:12.057Z,15.65
2019-05-07T22:42:59.431Z,19.25
2019-05-07T22:45:47.633Z,19.32
2019-05-07T22:48:35.500Z,12.47
2019-05-07T22:51:23.427Z,16.17
2019-05-07T22:54:12.094Z,16.20
2019-05-07T22:57:18.222Z,12.18
2019-05-07T23:00:12.155Z,14.93
2019-05-07T23:02:59.380Z,12.85
2019-05-07T23:05:47.195Z,13.28
2019-05-07T23:08:37.255Z,16.00
2019-05-07T23:11:25.323Z,13.03
2019-05-07T23:14:13.383Z,13.00
2019-05-07T23:17:02.243Z,11.45
2019-05-07T23:19:52.963Z,16.77
2019-05-07T23:22:39.891Z,18.98
2019-05-07T23:25:28.141Z,14.23
2019-05-07T23:28:16.316Z,20.62
2019-05-07T23:31:04.923Z,15.45
2019-05-07T23:33:53.574Z,16.42
2019-05-07T23:36:42.216Z,20.75
2019-05-07T23:39:42.084Z,14.93
2019-05-07T23:42:31.269Z,20.08
2019-05-07T23:45:19.303Z,14.85
2019-05-07T23:48:07.293Z,12.13
2019-05-07T23:50:55.161Z,12.63
2019-05-07T23:53:44.345Z,20.05
2019-05-07T23:56:33.051Z,13.35
2019-05-07T23:59:22.199Z,10.88
